Shen Hang 935 — BXGY — position and weather

sailwx.info

Track history (hours):
 
Tides and Currents Weather Stations Pressure Air Temp Water Temp Dewpoint Dewpoint Depression Visibility Wind Speed Wind Dir Waves Ship Positions

Shen Hang 935

Last reported at 2014-Jul-30 04:32 UTC. Time now 2014-Jul-30 09:13 UTC.
Position N 22°18' E 114°09'.

Length 49 m; draft 2.5 m.

Type: Ship. MMSI: 412466550.

Date/timePositionNaut miles runAvg speedWind from/ knotsBaromVisibWave heightAir tempDewpointWater temp
2014-Jul-30 04:32N 22°18' E 114°09'17 2.9
2014-Jul-29 22:33N 22°28' E 113°54'0 0.1
2014-Jul-29 17:32N 22°28' E 113°54'0 0.0
2014-Jul-29 09:25N 22°28' E 113°54'1 0.9
2014-Jul-29 08:25N 22°27' E 113°53'0 0.2
2014-Jul-29 06:31N 22°27' E 113°53'5 4.8
2014-Jul-29 05:31N 22°23' E 113°55'  
2014-Jul-25 19:27N 22°34' E 114°15'0 0.0
2014-Jul-25 18:26N 22°34' E 114°15'0 0.0
2014-Jul-25 17:28N 22°34' E 114°15'0 0.0
2014-Jul-25 16:33N 22°34' E 114°15'0 0.0
2014-Jul-25 14:32N 22°34' E 114°15'17 1.5
2014-Jul-25 03:12N 22°18' E 114°09'17 0.4
2014-Jul-23 09:13N 22°34' E 114°15'0 0.0
2014-Jul-23 08:25N 22°34' E 114°15'0 0.0
2014-Jul-23 07:31N 22°34' E 114°15'0 0.0
2014-Jul-23 06:25N 22°34' E 114°15'0 0.0
2014-Jul-23 05:13N 22°34' E 114°15'0 0.0
2014-Jul-23 04:31N 22°34' E 114°15'0 0.1
2014-Jul-23 03:24N 22°34' E 114°15'  
Track history (hours):
 
Tides and Currents Weather Stations Pressure Air Temp Water Temp Dewpoint Dewpoint Depression Visibility Wind Speed Wind Dir Waves Ship Positions

Shen Hang 935

Last reported at 2014-Jul-30 04:32 UTC. Time now 2014-Jul-30 09:13 UTC.
Position N 22°18' E 114°09'.

Length 49 m; draft 2.5 m.

Type: Ship. MMSI: 412466550.

Date/timePositionNaut miles runAvg speedWind from/ knotsBaromVisibWave heightAir tempDewpointWater temp
2014-Jul-30 04:32N 22°18' E 114°09'17 2.9
2014-Jul-29 22:33N 22°28' E 113°54'0 0.1
2014-Jul-29 17:32N 22°28' E 113°54'0 0.0
2014-Jul-29 09:25N 22°28' E 113°54'1 0.9
2014-Jul-29 08:25N 22°27' E 113°53'0 0.2
2014-Jul-29 06:31N 22°27' E 113°53'5 4.8
2014-Jul-29 05:31N 22°23' E 113°55'  
2014-Jul-25 19:27N 22°34' E 114°15'0 0.0
2014-Jul-25 18:26N 22°34' E 114°15'0 0.0
2014-Jul-25 17:28N 22°34' E 114°15'0 0.0
2014-Jul-25 16:33N 22°34' E 114°15'0 0.0
2014-Jul-25 14:32N 22°34' E 114°15'17 1.5
2014-Jul-25 03:12N 22°18' E 114°09'17 0.4
2014-Jul-23 09:13N 22°34' E 114°15'0 0.0
2014-Jul-23 08:25N 22°34' E 114°15'0 0.0
2014-Jul-23 07:31N 22°34' E 114°15'0 0.0
2014-Jul-23 06:25N 22°34' E 114°15'0 0.0
2014-Jul-23 05:13N 22°34' E 114°15'0 0.0
2014-Jul-23 04:31N 22°34' E 114°15'0 0.1
2014-Jul-23 03:24N 22°34' E 114°15'  

Dump ship's entire track history